Time,TemperatureF,DewpointF,PressureIn,WindDirection,WindDirectionDegrees,WindSpeedMPH,WindSpeedGustMPH,Humidity,HourlyPrecipIn,Conditions,Clouds,dailyrainin,SoftwareType,DateUTC
2015-05-28 00:02:00,77.0,67.0,30.10,ENE,65,8.0,12.0,71,-99.99,,,-99.99,,2015-05-28 04:02:00,
2015-05-28 00:11:00,77.0,67.0,30.10,ENE,61,8.0,12.0,70,-99.99,,,-99.99,,2015-05-28 04:11:00,
2015-05-28 00:31:00,76.0,66.0,30.09,ENE,62,7.0,11.0,70,-99.99,,,-99.99,,2015-05-28 04:31:00,
2015-05-28 00:52:00,75.0,64.0,30.09,ENE,61,6.0,8.0,68,-99.99,,,-99.99,,2015-05-28 04:52:00,
2015-05-28 01:11:00,75.0,64.0,30.09,ENE,61,5.0,7.0,69,-99.99,,,-99.99,,2015-05-28 05:11:00,
2015-05-28 01:21:00,75.0,64.0,30.09,ENE,61,5.0,7.0,69,-99.99,,,-99.99,,2015-05-28 05:21:00,
2015-05-28 01:42:00,74.0,64.0,30.08,ENE,78,6.0,8.0,69,-99.99,,,-99.99,,2015-05-28 05:42:00,
2015-05-28 01:52:00,74.0,64.0,30.08,ENE,78,6.0,8.0,69,-99.99,,,-99.99,,2015-05-28 05:52:00,
2015-05-28 02:03:00,74.0,64.0,30.08,ENE,78,6.0,8.0,69,-99.99,,,-99.99,,2015-05-28 06:03:00,
2015-05-28 02:12:00,74.0,64.0,30.08,ENE,77,5.0,8.0,71,-99.99,,,-99.99,,2015-05-28 06:12:00,
2015-05-28 02:42:00,72.0,65.0,30.07,ENE,62,4.0,5.0,78,-99.99,,,-99.99,,2015-05-28 06:42:00,
2015-05-28 02:51:00,73.0,66.0,30.06,ENE,75,6.0,9.0,78,-99.99,,,-99.99,,2015-05-28 06:51:00,
2015-05-28 03:11:00,74.0,66.0,30.05,East,88,6.0,10.0,75,-99.99,,,-99.99,,2015-05-28 07:11:00,
2015-05-28 03:21:00,74.0,66.0,30.05,East,88,6.0,10.0,75,-99.99,,,-99.99,,2015-05-28 07:21:00,
2015-05-28 03:31:00,75.0,66.0,30.05,East,88,5.0,8.0,74,-99.99,,,-99.99,,2015-05-28 07:31:00,
2015-05-28 03:41:00,74.0,66.0,30.05,East,87,5.0,7.0,75,-99.99,,,-99.99,,2015-05-28 07:41:00,
2015-05-28 03:52:00,74.0,66.0,30.04,East,81,6.0,12.0,74,-99.99,,,-99.99,,2015-05-28 07:52:00,
2015-05-28 04:11:00,74.0,65.0,30.04,East,79,5.0,7.0,72,-99.99,,,-99.99,,2015-05-28 08:11:00,
2015-05-28 04:21:00,74.0,65.0,30.04,East,79,5.0,7.0,72,-99.99,,,-99.99,,2015-05-28 08:21:00,
2015-05-28 04:30:00,74.0,63.0,30.04,ENE,75,5.0,8.0,69,-99.99,,,-99.99,,2015-05-28 08:30:00,
2015-05-28 04:41:00,74.0,64.0,30.04,ENE,78,6.0,8.0,69,-99.99,,,-99.99,,2015-05-28 08:41:00,
2015-05-28 04:51:00,74.0,64.0,30.04,ENE,78,6.0,8.0,69,-99.99,,,-99.99,,2015-05-28 08:51:00,
2015-05-28 05:12:00,74.0,63.0,30.04,ENE,75,5.0,8.0,69,-99.99,,,-99.99,,2015-05-28 09:12:00,
2015-05-28 05:21:00,74.0,63.0,30.04,ENE,75,5.0,8.0,69,-99.99,,,-99.99,,2015-05-28 09:21:00,
2015-05-28 05:42:00,73.0,63.0,30.04,ENE,67,4.0,5.0,72,-99.99,,,-99.99,,2015-05-28 09:42:00,
2015-05-28 05:51:00,72.0,64.0,30.05,ENE,64,4.0,6.0,74,-99.99,,,-99.99,,2015-05-28 09:51:00,
2015-05-28 06:11:00,72.0,64.0,30.05,ENE,76,5.0,6.0,75,-99.99,,,-99.99,,2015-05-28 10:11:00,
2015-05-28 06:21:00,72.0,64.0,30.05,ENE,76,5.0,6.0,75,-99.99,,,-99.99,,2015-05-28 10:21:00,
2015-05-28 06:31:00,72.0,64.0,30.05,ENE,76,5.0,6.0,75,-99.99,,,-99.99,,2015-05-28 10:31:00,
2015-05-28 06:41:00,72.0,65.0,30.05,ENE,78,4.0,6.0,76,-99.99,,,-99.99,,2015-05-28 10:41:00,
2015-05-28 07:02:00,72.0,65.0,30.05,ENE,76,5.0,6.0,76,-99.99,,,-99.99,,2015-05-28 11:02:00,
2015-05-28 07:11:00,72.0,65.0,30.05,ENE,76,4.0,6.0,76,-99.99,,,-99.99,,2015-05-28 11:11:00,
2015-05-28 07:22:00,72.0,65.0,30.05,ENE,76,4.0,6.0,76,-99.99,,,-99.99,,2015-05-28 11:22:00,
2015-05-28 07:42:00,74.0,65.0,30.06,ENE,64,5.0,8.0,74,-99.99,,,-99.99,,2015-05-28 11:42:00,
2015-05-28 07:52:00,76.0,65.0,30.06,ENE,63,6.0,9.0,68,-99.99,,,-99.99,,2015-05-28 11:52:00,
2015-05-28 08:11:00,76.0,64.0,30.06,ENE,67,6.0,11.0,66,-99.99,,,-99.99,,2015-05-28 12:11:00,
2015-05-28 08:21:00,76.0,64.0,30.06,ENE,67,6.0,11.0,66,-99.99,,,-99.99,,2015-05-28 12:21:00,
2015-05-28 08:32:00,76.0,64.0,30.06,ENE,67,6.0,11.0,66,-99.99,,,-99.99,,2015-05-28 12:32:00,
2015-05-28 09:00:00,79.0,66.0,30.07,East,83,12.0,20.0,63,-99.99,,,-99.99,,2015-05-28 13:00:00,
2015-05-28 09:02:00,78.0,64.0,30.07,ENE,72,10.0,15.0,61,-99.99,,,-99.99,,2015-05-28 13:02:00,
2015-05-28 09:12:00,78.0,64.0,30.07,ENE,72,10.0,15.0,61,-99.99,,,-99.99,,2015-05-28 13:12:00,
2015-05-28 09:30:00,80.0,66.0,30.08,ENE,75,11.0,18.0,60,-99.99,,,-99.99,,2015-05-28 13:30:00,
2015-05-28 10:11:00,80.0,66.0,30.08,ENE,75,11.0,18.0,60,-99.99,,,-99.99,,2015-05-28 14:11:00,
2015-05-28 10:21:00,80.0,66.0,30.08,ENE,75,11.0,18.0,60,-99.99,,,-99.99,,2015-05-28 14:21:00,
2015-05-28 11:12:00,81.0,65.0,30.08,ENE,62,13.0,18.0,58,-99.99,,,-99.99,,2015-05-28 15:12:00,
2015-05-28 11:52:00,82.0,67.0,30.09,ENE,64,11.0,18.0,59,-99.99,,,-99.99,,2015-05-28 15:52:00,
2015-05-28 12:00:00,81.0,67.0,30.09,NE,55,9.0,15.0,60,-99.99,,,-99.99,,2015-05-28 16:00:00,
2015-05-28 12:03:00,82.0,67.0,30.09,ENE,64,11.0,18.0,59,-99.99,,,-99.99,,2015-05-28 16:03:00,
2015-05-28 12:11:00,82.0,67.0,30.09,ENE,64,11.0,18.0,59,-99.99,,,-99.99,,2015-05-28 16:11:00,
2015-05-28 12:52:00,81.0,67.0,30.09,NE,55,9.0,15.0,60,-99.99,,,-99.99,,2015-05-28 16:52:00,
2015-05-28 13:12:00,82.0,67.0,30.09,ENE,65,8.0,13.0,61,-99.99,,,-99.99,,2015-05-28 17:12:00,
2015-05-28 13:30:00,80.0,69.0,30.08,ENE,73,13.0,23.0,67,-99.99,,,-99.99,,2015-05-28 17:30:00,
2015-05-28 14:03:00,81.0,68.0,30.08,ENE,75,10.0,15.0,64,-99.99,,,-99.99,,2015-05-28 18:03:00,
2015-05-28 14:11:00,80.0,69.0,30.08,ENE,73,13.0,23.0,67,-99.99,,,-99.99,,2015-05-28 18:11:00,
2015-05-28 14:22:00,80.0,69.0,30.08,ENE,73,13.0,23.0,67,-99.99,,,-99.99,,2015-05-28 18:22:00,
2015-05-28 14:30:00,82.0,69.0,30.07,ENE,67,13.0,22.0,63,-99.99,,,-99.99,,2015-05-28 18:30:00,
2015-05-28 14:52:00,78.0,70.0,30.07,East,81,9.0,16.0,77,-99.99,,,-99.99,,2015-05-28 18:52:00,
2015-05-28 15:12:00,82.0,69.0,30.07,ENE,67,13.0,22.0,63,-99.99,,,-99.99,,2015-05-28 19:12:00,
2015-05-28 15:22:00,82.0,69.0,30.07,ENE,67,13.0,22.0,63,-99.99,,,-99.99,,2015-05-28 19:22:00,
2015-05-28 16:12:00,83.0,68.0,30.06,ENE,58,14.0,22.0,59,-99.99,,,-99.99,,2015-05-28 20:12:00,
2015-05-28 16:44:00,83.0,68.0,30.05,ENE,59,12.0,19.0,58,-99.99,,,-99.99,,2015-05-28 20:44:00,